Time;durP1;ratioP1;P1;durP2;ratioP2;P2;SDS_P1;SDS_P2;PMS_P1;PMS_P2;Temp;Humidity;BMP_temperature;BMP_pressure;BME280_temperature;BME280_humidity;BME280_pressure;Samples;Min_cycle;Max_cycle;Signal;HPM_P1;HPM_P2
2021/06/15 00:00:25;;;;;;;;;8.67;6.00;;;;;20.13;43.03;98818.28;4968649;28;101985;-81
2021/06/15 00:02:52;;;;;;;;;6.67;6.00;;;;;20.11;43.04;98825.97;4960793;28;102128;-81
2021/06/15 00:05:19;;;;;;;;;8.00;8.00;;;;;20.09;42.82;98819.88;4960998;28;103301;-81
2021/06/15 00:07:46;;;;;;;;;7.00;7.00;;;;;20.10;42.64;98824.28;4958255;27;102341;-81
2021/06/15 00:10:23;;;;;;;;;6.00;6.00;;;;;20.10;42.98;98824.28;4966471;28;102436;-80
2021/06/15 00:12:51;;;;;;;;;7.00;7.00;;;;;20.05;42.81;98814.09;4963206;28;102554;-81
2021/06/15 00:15:20;;;;;;;;;7.00;6.00;;;;;20.07;42.87;98821.25;4944759;28;103798;-81
2021/06/15 00:17:50;;;;;;;;;6.33;6.33;;;;;20.07;42.72;98822.06;4961104;28;103147;-81
2021/06/15 00:20:25;;;;;;;;;7.00;7.00;;;;;20.03;42.17;98818.19;4952486;27;102321;-80
2021/06/15 00:22:59;;;;;;;;;6.00;6.00;;;;;20.04;42.60;98815.16;4970066;28;102387;-81
2021/06/15 00:25:32;;;;;;;;;7.00;6.67;;;;;19.98;42.60;98798.91;4963171;27;108808;-81
2021/06/15 00:28:12;;;;;;;;;8.33;7.00;;;;;20.04;42.33;98814.34;4967600;28;104484;-81
2021/06/15 00:30:48;;;;;;;;;9.67;8.33;;;;;19.96;42.64;98801.06;4960498;27;104637;-82
2021/06/15 00:33:26;;;;;;;;;4.00;2.00;;;;;20.04;42.33;98819.81;4956920;28;102820;-81
2021/06/15 00:36:03;;;;;;;;;6.67;6.00;;;;;19.98;42.33;98807.97;4962966;28;106477;-81
2021/06/15 00:38:35;;;;;;;;;6.00;6.00;;;;;19.94;41.95;98804.09;4913607;28;102300;-81
2021/06/15 00:41:06;;;;;;;;;7.00;6.00;;;;;20.00;42.13;98804.94;4991853;28;102146;-81
2021/06/15 00:43:41;;;;;;;;;6.67;6.67;;;;;19.92;42.07;98802.66;4966646;28;102425;-81
2021/06/15 00:46:22;;;;;;;;;8.33;7.33;;;;;19.95;42.14;98804.88;4970727;28;102073;-81
2021/06/15 00:49:05;;;;;;;;;8.00;8.00;;;;;19.93;41.34;98804.34;4978022;28;102312;-81
2021/06/15 00:51:39;;;;;;;;;6.67;6.00;;;;;19.99;41.42;98806.06;4898871;28;103042;-82
2021/06/15 00:54:24;;;;;;;;;7.33;6.33;;;;;19.95;41.19;98796.66;4970245;28;104438;-81
2021/06/15 00:57:00;;;;;;;;;6.33;6.33;;;;;19.99;41.41;98800.56;4983963;28;106730;-81
2021/06/15 00:59:34;;;;;;;;;7.67;7.00;;;;;20.01;41.14;98807.44;4962764;27;102392;-80
2021/06/15 01:02:12;;;;;;;;;6.67;5.33;;;;;19.96;41.26;98793.66;4944765;28;102298;-81
2021/06/15 01:04:45;;;;;;;;;6.00;6.00;;;;;19.91;40.96;98788.13;4951259;28;102822;-81
2021/06/15 01:07:41;;;;;;;;;7.00;7.00;;;;;19.90;40.57;98785.66;4957356;27;103056;-80
2021/06/15 01:10:49;;;;;;;;;7.00;6.00;;;;;19.95;40.84;98788.41;4870913;28;102217;-81
2021/06/15 01:13:45;;;;;;;;;7.00;6.00;;;;;19.90;40.80;98785.66;4849809;28;103446;-81
2021/06/15 01:16:34;;;;;;;;;7.00;6.67;;;;;19.87;40.95;98775.16;4885190;28;102418;-81
2021/06/15 01:19:41;;;;;;;;;6.00;6.00;;;;;19.85;40.59;98771.88;4908714;28;107721;-81
2021/06/15 01:22:28;;;;;;;;;6.33;6.00;;;;;19.90;40.94;98778.22;4877422;28;104386;-80
2021/06/15 01:25:28;;;;;;;;;8.00;7.00;;;;;19.83;40.51;98765.78;4942268;28;102442;-81
2021/06/15 01:28:25;;;;;;;;;3.00;3.00;;;;;19.85;40.86;98775.44;4898590;28;102187;-81
2021/06/15 01:31:18;;;;;;;;;6.33;6.33;;;;;19.85;40.47;98782.84;4882392;28;106510;-82
2021/06/15 01:34:00;;;;;;;;;7.67;6.00;;;;;19.76;40.71;98763.25;4898674;28;102404;-81
2021/06/15 01:36:42;;;;;;;;;7.67;7.33;;;;;19.77;40.69;98775.88;4954845;28;103669;-82
2021/06/15 01:39:19;;;;;;;;;8.67;8.00;;;;;19.80;40.44;98780.88;4973494;28;104573;-80
2021/06/15 01:42:23;;;;;;;;;9.33;6.67;;;;;19.81;40.60;98779.75;4974490;28;102655;-81
2021/06/15 01:45:39;;;;;;;;;7.67;7.67;;;;;19.74;40.19;98764.59;4892669;28;102499;-81
2021/06/15 01:48:33;;;;;;;;;10.33;8.33;;;;;19.76;40.32;98773.41;4773560;28;102747;-80
2021/06/15 01:51:12;;;;;;;;;12.33;8.33;;;;;19.74;40.44;98764.59;4957066;28;102317;-83
2021/06/15 01:53:59;;;;;;;;;7.33;7.00;;;;;19.73;40.57;98768.41;4962422;28;102881;-81
2021/06/15 01:56:33;;;;;;;;;9.33;8.00;;;;;19.71;40.24;98765.94;4960370;28;102354;-81
2021/06/15 01:59:10;;;;;;;;;7.67;7.67;;;;;19.71;40.03;98765.94;4969137;27;102211;-81
2021/06/15 02:01:56;;;;;;;;;9.00;6.67;;;;;19.74;40.14;98775.56;4909510;27;102125;-82
2021/06/15 02:04:58;;;;;;;;;6.67;6.67;;;;;19.71;39.86;98776.91;4949130;28;107749;-82
2021/06/15 02:07:42;;;;;;;;;8.33;6.67;;;;;19.67;40.05;98775.75;4963104;28;102160;-83
2021/06/15 02:10:25;;;;;;;;;6.00;5.33;;;;;19.67;39.76;98766.69;4920562;28;102198;-82
2021/06/15 02:13:00;;;;;;;;;9.00;8.00;;;;;19.59;39.88;98752.31;4959060;28;102069;-81
2021/06/15 02:15:39;;;;;;;;;10.00;9.00;;;;;19.67;39.90;98763.97;4952055;28;106837;-81
2021/06/15 02:18:16;;;;;;;;;10.67;8.33;;;;;19.62;39.80;98759.25;4966228;28;102292;-81
2021/06/15 02:21:05;;;;;;;;;9.00;8.33;;;;;19.56;39.80;98754.75;4958040;28;102242;-81
2021/06/15 02:23:39;;;;;;;;;8.33;7.00;;;;;19.66;39.81;98776.00;4972729;28;102546;-81
2021/06/15 02:26:20;;;;;;;;;8.00;7.00;;;;;19.56;39.58;98752.84;4910893;28;106384;-81
2021/06/15 02:28:57;;;;;;;;;9.00;8.00;;;;;19.62;39.74;98756.50;4949922;28;102626;-81
2021/06/15 02:31:36;;;;;;;;;7.00;7.00;;;;;19.56;39.52;98747.38;4972251;28;102144;-81
2021/06/15 02:34:16;;;;;;;;;0.00;0.00;;;;;19.55;39.73;98748.44;4940597;28;102052;-82
2021/06/15 02:36:57;;;;;;;;;9.67;9.00;;;;;19.60;39.34;98754.00;4972105;28;102841;-80
2021/06/15 02:39:42;;;;;;;;;8.33;6.33;;;;;19.59;39.45;98752.31;4963489;28;102366;-80
2021/06/15 02:42:21;;;;;;;;;9.33;8.00;;;;;19.53;39.55;98747.88;4963245;28;102506;-82
2021/06/15 02:45:00;;;;;;;;;11.67;7.00;;;;;19.56;39.40;98761.09;4957085;28;102231;-81
2021/06/15 02:47:42;;;;;;;;;6.33;6.00;;;;;19.50;39.62;98742.88;4959016;27;103626;-82
2021/06/15 02:50:20;;;;;;;;;9.33;9.00;;;;;19.46;39.50;98743.66;4905902;28;102887;-81
2021/06/15 02:53:03;;;;;;;;;10.67;9.00;;;;;19.51;39.42;98760.19;4947020;28;103652;-81
2021/06/15 02:55:42;;;;;;;;;11.00;8.00;;;;;19.48;39.17;98749.72;4983988;28;102077;-81
2021/06/15 02:58:14;;;;;;;;;8.00;7.00;;;;;19.43;39.36;98755.97;4878844;28;110127;-80
2021/06/15 03:00:53;;;;;;;;;7.67;7.00;;;;;19.41;39.21;98760.00;4966483;28;105303;-81
2021/06/15 03:03:36;;;;;;;;;8.00;7.00;;;;;19.45;39.05;98778.47;4952908;28;102504;-81
2021/06/15 03:06:11;;;;;;;;;9.00;9.00;;;;;19.45;39.04;98773.00;4957639;28;102315;-80
2021/06/15 03:08:59;;;;;;;;;10.00;9.00;;;;;19.38;39.25;98769.59;4974608;28;102412;-81
2021/06/15 03:11:37;;;;;;;;;10.00;9.00;;;;;19.34;38.75;98770.34;4961946;28;101799;-81
2021/06/15 03:14:12;;;;;;;;;7.00;6.00;;;;;19.37;39.08;98770.66;4949994;28;102590;-81
2021/06/15 03:16:39;;;;;;;;;9.33;8.33;;;;;19.43;38.98;98769.69;4949257;28;102074;-82
2021/06/15 03:19:09;;;;;;;;;8.67;8.00;;;;;19.41;38.87;98774.56;4979620;28;104154;-82
2021/06/15 03:21:54;;;;;;;;;9.00;7.00;;;;;19.33;39.03;98768.69;4926351;28;102297;-81
2021/06/15 03:24:24;;;;;;;;;8.00;7.67;;;;;19.41;38.67;98793.75;4885690;28;102214;-81
2021/06/15 03:27:08;;;;;;;;;9.00;9.00;;;;;19.38;39.06;98788.78;4963135;28;102485;-80
2021/06/15 03:29:38;;;;;;;;;8.33;8.00;;;;;19.38;38.95;98790.69;4953786;28;108329;-80
2021/06/15 03:32:14;;;;;;;;;7.00;6.00;;;;;19.28;38.87;98774.91;4953800;28;108965;-80
2021/06/15 03:34:44;;;;;;;;;8.00;8.00;;;;;19.33;38.61;98777.72;4969909;28;102109;-81
2021/06/15 03:37:16;;;;;;;;;8.33;8.33;;;;;19.33;38.85;98785.97;4981114;28;102597;-81
2021/06/15 03:39:45;;;;;;;;;8.00;8.00;;;;;19.32;38.71;98783.47;4965654;28;103068;-82
2021/06/15 03:42:19;;;;;;;;;9.00;9.00;;;;;19.26;38.78;98774.34;4981207;28;101899;-82
2021/06/15 03:45:03;;;;;;;;;9.00;9.00;;;;;19.19;38.79;98762.72;4976285;28;102108;-80
2021/06/15 03:47:32;;;;;;;;;9.67;8.67;;;;;19.27;38.67;98770.53;4970048;28;101950;-80
2021/06/15 03:49:59;;;;;;;;;8.67;7.33;;;;;19.27;38.77;98781.50;4956787;27;103220;-80
2021/06/15 03:52:28;;;;;;;;;8.67;8.67;;;;;19.22;38.71;98772.38;4976847;28;102333;-80
2021/06/15 03:54:58;;;;;;;;;8.00;7.67;;;;;19.16;38.41;98752.28;4976342;28;103015;-82
2021/06/15 03:57:25;;;;;;;;;10.00;8.33;;;;;19.21;38.64;98766.06;4976246;28;102341;-82
2021/06/15 03:59:55;;;;;;;;;8.00;7.00;;;;;19.22;38.55;98770.47;4953314;28;106737;-81
2021/06/15 04:02:24;;;;;;;;;11.67;8.00;;;;;19.17;38.62;98760.25;4955996;28;101705;-82
2021/06/15 04:04:52;;;;;;;;;11.33;9.33;;;;;19.19;38.63;98757.25;4956804;28;102154;-81
2021/06/15 04:07:20;;;;;;;;;7.67;7.67;;;;;19.21;38.15;98763.31;4965333;28;103085;-80
2021/06/15 04:09:48;;;;;;;;;7.33;7.33;;;;;19.13;38.33;98752.78;4958812;28;104255;-81
2021/06/15 04:12:15;;;;;;;;;9.00;8.50;;;;;19.19;38.64;98762.72;4948743;28;102368;-80
2021/06/15 04:14:44;;;;;;;;;9.67;9.67;;;;;19.12;38.33;98749.22;4972949;28;102653;-81
2021/06/15 04:17:16;;;;;;;;;9.00;8.00;;;;;19.12;38.21;98745.66;4941154;28;102523;-81
2021/06/15 04:19:45;;;;;;;;;10.33;10.00;;;;;19.15;38.47;98756.09;4974142;28;104508;-81
2021/06/15 04:22:14;;;;;;;;;6.33;6.33;;;;;19.14;38.62;98762.66;4963584;28;102530;-80
2021/06/15 04:24:45;;;;;;;;;10.00;9.67;;;;;19.09;38.73;98754.38;4981429;28;102572;-81
2021/06/15 04:27:21;;;;;;;;;10.25;10.25;;;;;19.11;38.44;98763.16;4963053;28;103057;-80
2021/06/15 04:29:49;;;;;;;;;9.00;8.00;;;;;19.11;38.37;98760.44;4958356;28;103444;-80
2021/06/15 04:32:19;;;;;;;;;12.00;10.33;;;;;19.07;38.36;98760.09;4956449;28;102636;-80
2021/06/15 04:34:55;;;;;;;;;8.67;8.00;;;;;19.08;38.39;98761.78;4950157;28;102195;-81
2021/06/15 04:37:23;;;;;;;;;10.00;9.00;;;;;19.08;38.28;98759.03;4971688;28;102906;-81
2021/06/15 04:39:56;;;;;;;;;11.50;10.25;;;;;19.08;38.41;98761.78;4941593;28;104099;-81
2021/06/15 04:42:27;;;;;;;;;10.67;9.67;;;;;19.05;38.54;98769.66;4945277;28;102255;-80
2021/06/15 04:44:55;;;;;;;;;12.33;9.00;;;;;19.05;38.58;98775.97;4947193;28;104700;-81
2021/06/15 04:47:24;;;;;;;;;7.67;7.67;;;;;18.96;38.17;98758.28;4949262;28;102259;-82
2021/06/15 04:50:28;;;;;;;;;11.25;10.75;;;;;18.98;38.66;98761.63;4941681;28;104235;-81
2021/06/15 04:52:56;;;;;;;;;9.75;8.00;;;;;18.95;38.40;98761.28;4851405;28;102236;-80
2021/06/15 04:55:26;;;;;;;;;9.67;9.00;;;;;18.96;38.21;98765.66;4938947;28;102551;-80
2021/06/15 04:57:57;;;;;;;;;10.00;9.50;;;;;18.99;38.52;98767.94;4962342;28;102314;-80
2021/06/15 05:00:25;;;;;;;;;12.00;10.75;;;;;18.98;38.30;98782.69;4961001;28;106233;-81
2021/06/15 05:02:56;;;;;;;;;8.50;8.00;;;;;19.00;38.29;98786.84;4969263;28;102419;-81
2021/06/15 05:05:24;;;;;;;;;8.00;8.00;;;;;18.97;38.66;98790.09;4931960;28;103158;-81
2021/06/15 05:07:56;;;;;;;;;12.25;8.25;;;;;19.00;38.42;98795.06;4966445;28;102250;-81
2021/06/15 05:10:24;;;;;;;;;13.33;10.00;;;;;18.99;38.31;98796.16;4973359;27;103230;-81
2021/06/15 05:12:54;;;;;;;;;10.67;10.00;;;;;18.96;38.32;98790.34;4956658;28;103247;-81
2021/06/15 05:15:26;;;;;;;;;10.75;9.00;;;;;18.96;38.51;98795.81;4964719;28;102002;-81
2021/06/15 05:17:59;;;;;;;;;10.00;9.00;;;;;18.99;38.67;98798.06;4970360;28;103162;-81
2021/06/15 05:20:37;;;;;;;;;9.00;8.00;;;;;18.94;38.76;98785.13;4974914;28;107773;-81
2021/06/15 05:23:08;;;;;;;;;9.50;8.75;;;;;18.99;38.80;98801.66;4975414;28;102244;-80
2021/06/15 05:25:35;;;;;;;;;10.50;9.50;;;;;18.95;38.72;98796.91;4966761;28;103957;-80
2021/06/15 05:28:03;;;;;;;;;10.75;9.75;;;;;18.91;39.23;98787.53;4975010;27;102218;-81
2021/06/15 05:30:34;;;;;;;;;9.00;8.50;;;;;18.95;38.73;98803.22;4973682;28;103261;-81
2021/06/15 05:33:01;;;;;;;;;10.00;9.00;;;;;19.01;38.91;98815.09;4972138;28;102446;-81
2021/06/15 05:35:30;;;;;;;;;8.50;8.25;;;;;19.00;39.23;98808.75;4971296;28;102090;-80
2021/06/15 05:37:58;;;;;;;;;9.00;8.00;;;;;19.01;39.38;98815.09;4977012;27;102463;-81
2021/06/15 05:40:30;;;;;;;;;8.50;8.50;;;;;18.94;39.18;98798.00;4945280;28;104002;-81
2021/06/15 05:42:57;;;;;;;;;10.00;8.67;;;;;19.00;39.60;98810.69;4970602;28;102150;-81
2021/06/15 05:45:27;;;;;;;;;10.75;10.75;;;;;19.02;39.55;98822.22;4977730;28;103813;-80
2021/06/15 05:47:55;;;;;;;;;8.50;7.75;;;;;19.00;39.40;98813.44;4978816;28;102110;-81
2021/06/15 05:50:22;;;;;;;;;12.25;9.00;;;;;18.98;39.49;98810.94;4971597;28;104076;-81
2021/06/15 05:52:50;;;;;;;;;11.33;9.00;;;;;18.96;39.44;98810.34;4975889;28;104633;-81
2021/06/15 05:55:19;;;;;;;;;10.75;9.75;;;;;19.00;39.97;98818.94;4969783;28;102080;-81
2021/06/15 05:57:47;;;;;;;;;8.50;8.00;;;;;19.01;39.90;98826.03;4976686;28;102314;-81
2021/06/15 06:00:15;;;;;;;;;9.25;8.00;;;;;18.95;40.20;98816.94;4979601;28;104253;-81
2021/06/15 06:02:42;;;;;;;;;8.00;7.25;;;;;18.94;39.82;98814.44;4974038;28;102169;-80
2021/06/15 06:10:29;;;;;;;;;8.00;7.75;;;;;19.01;40.39;98828.78;4987116;27;104121;-81
2021/06/15 06:12:59;;;;;;;;;8.25;8.25;;;;;19.00;40.52;98827.16;4963421;28;102049;-81
2021/06/15 06:15:27;;;;;;;;;9.00;8.50;;;;;19.00;40.63;98840.84;4962585;28;103229;-81
2021/06/15 06:17:54;;;;;;;;;9.00;7.00;;;;;18.97;40.72;98830.38;4974195;28;102386;-81
2021/06/15 06:20:21;;;;;;;;;12.00;10.00;;;;;18.96;40.66;98823.22;4938425;28;103242;-81
2021/06/15 06:22:50;;;;;;;;;7.33;7.00;;;;;18.96;40.98;98820.47;4973195;28;101764;-80
2021/06/15 06:25:17;;;;;;;;;10.33;8.00;;;;;18.94;40.92;98825.41;4979533;28;103686;-81
2021/06/15 06:27:44;;;;;;;;;7.67;7.67;;;;;18.95;41.11;98822.41;4966299;28;102334;-81
2021/06/15 06:30:13;;;;;;;;;9.00;8.00;;;;;18.96;41.42;98834.19;4974680;28;102985;-81
2021/06/15 06:32:43;;;;;;;;;10.33;9.00;;;;;19.00;41.10;98832.63;4977414;28;102035;-81
2021/06/15 06:35:10;;;;;;;;;9.00;7.00;;;;;19.02;41.52;98827.72;4962150;28;102170;-81
2021/06/15 06:37:51;;;;;;;;;10.00;9.00;;;;;18.97;41.44;98827.63;4891471;28;102232;-81
2021/06/15 06:40:21;;;;;;;;;8.25;7.25;;;;;19.01;41.51;98826.88;4965116;28;104319;-81
2021/06/15 06:42:53;;;;;;;;;8.67;7.00;;;;;19.03;41.54;98823.91;4961134;28;102722;-82
2021/06/15 06:45:21;;;;;;;;;9.00;8.67;;;;;19.03;41.45;98812.94;4962250;28;102466;-81
2021/06/15 06:47:49;;;;;;;;;10.67;8.67;;;;;19.14;41.41;98828.44;4964998;28;102648;-81
2021/06/15 06:50:16;;;;;;;;;9.00;8.33;;;;;19.16;41.43;98829.03;4953440;28;104083;-81
2021/06/15 06:52:57;;;;;;;;;10.25;8.25;;;;;19.17;41.66;98819.75;4968618;28;102136;-80
2021/06/15 06:55:25;;;;;;;;;7.67;5.33;;;;;19.11;41.94;98815.25;4959541;28;101846;-82
2021/06/15 06:57:54;;;;;;;;;7.00;7.00;;;;;19.17;42.00;98817.00;4959684;28;102830;-79
2021/06/15 07:00:35;;;;;;;;;8.00;7.00;;;;;19.17;41.87;98809.59;4966353;27;103070;-81
2021/06/15 07:03:02;;;;;;;;;9.00;7.75;;;;;19.19;41.64;98803.84;4966356;28;102092;-80
2021/06/15 07:05:30;;;;;;;;;7.00;7.00;;;;;19.24;42.01;98814.91;4962111;28;102130;-81
2021/06/15 07:08:00;;;;;;;;;8.33;8.00;;;;;19.26;41.92;98810.00;4950924;28;102184;-81
2021/06/15 07:10:41;;;;;;;;;8.00;8.00;;;;;19.22;41.51;98806.09;4974913;28;108822;-81
2021/06/15 07:13:08;;;;;;;;;7.25;7.00;;;;;19.30;41.50;98813.06;4954293;28;102238;-81
2021/06/15 07:15:36;;;;;;;;;10.67;9.00;;;;;19.24;41.57;98803.94;4961968;28;103048;-81
2021/06/15 07:18:04;;;;;;;;;10.00;8.67;;;;;19.28;41.15;98809.72;4964922;28;102622;-81
2021/06/15 07:20:33;;;;;;;;;7.67;7.67;;;;;19.34;41.38;98811.47;4946848;28;103526;-81
2021/06/15 07:23:00;;;;;;;;;6.33;6.33;;;;;19.38;41.59;98816.19;4969975;28;103372;-81
2021/06/15 07:25:32;;;;;;;;;7.33;7.33;;;;;19.40;41.19;98824.19;4982054;27;102199;-81
2021/06/15 07:27:59;;;;;;;;;9.00;8.00;;;;;19.42;41.65;98822.00;4977046;27;102649;-81
2021/06/15 07:30:27;;;;;;;;;8.67;8.33;;;;;19.32;41.45;98808.97;4973160;28;103650;-81
2021/06/15 07:32:58;;;;;;;;;7.00;7.00;;;;;19.34;41.61;98804.09;4969992;28;109234;-81
2021/06/15 07:35:35;;;;;;;;;8.33;7.00;;;;;19.39;41.38;98812.38;4969463;28;102382;-83
2021/06/15 07:38:03;;;;;;;;;7.00;7.00;;;;;19.39;41.48;98812.38;4968521;28;102010;-81
2021/06/15 07:40:30;;;;;;;;;7.00;7.00;;;;;19.37;41.44;98794.50;4996968;27;104854;-80
2021/06/15 07:42:58;;;;;;;;;9.67;9.00;;;;;19.49;41.39;98817.22;4967669;28;102110;-81
2021/06/15 07:45:28;;;;;;;;;7.00;7.00;;;;;19.49;41.52;98820.78;4978610;27;103674;-82
2021/06/15 07:47:57;;;;;;;;;7.00;7.00;;;;;19.42;41.46;98802.81;4970380;27;103422;-81
2021/06/15 07:50:24;;;;;;;;;8.00;8.00;;;;;19.51;41.58;98809.56;4964125;28;102843;-80
2021/06/15 07:52:51;;;;;;;;;6.67;6.67;;;;;19.51;41.62;98820.53;4975569;28;101913;-81
2021/06/15 07:55:19;;;;;;;;;7.67;7.67;;;;;19.46;41.60;98813.06;4965289;28;101931;-80
2021/06/15 07:57:47;;;;;;;;;8.00;7.00;;;;;19.50;41.72;98808.72;4975428;27;102673;-82
2021/06/15 08:00:15;;;;;;;;;7.00;7.00;;;;;19.49;41.61;98807.09;4965954;28;104307;-81
2021/06/15 08:02:44;;;;;;;;;9.00;8.33;;;;;19.50;41.78;98803.22;4994512;28;102394;-80
2021/06/15 08:05:12;;;;;;;;;8.67;8.00;;;;;19.59;41.63;98818.16;4977837;28;102138;-81
2021/06/15 08:07:40;;;;;;;;;8.67;8.33;;;;;19.58;41.51;98808.31;4965679;28;102169;-81
2021/06/15 08:10:08;;;;;;;;;8.00;7.00;;;;;19.61;41.69;98815.19;4975780;28;103075;-80
2021/06/15 08:12:36;;;;;;;;;9.67;8.00;;;;;19.63;41.75;98806.72;4979166;28;102001;-81
2021/06/15 08:15:05;;;;;;;;;9.33;8.00;;;;;19.60;41.84;98808.03;4964548;28;102412;-81
2021/06/15 08:17:32;;;;;;;;;7.33;7.00;;;;;19.65;41.64;98820.97;4973230;28;102859;-80
2021/06/15 08:20:00;;;;;;;;;6.00;5.67;;;;;19.65;41.84;98819.06;4972556;28;104073;-80
2021/06/15 08:22:29;;;;;;;;;7.67;7.67;;;;;19.63;41.75;98803.97;4965935;28;102224;-80
2021/06/15 08:24:59;;;;;;;;;7.00;6.00;;;;;19.66;41.86;98818.00;4969556;28;102111;-81
2021/06/15 08:27:27;;;;;;;;;7.33;7.00;;;;;19.61;42.18;98806.94;4970754;27;102445;-80
2021/06/15 08:29:54;;;;;;;;;8.67;8.00;;;;;19.58;41.90;98805.56;4972764;28;103067;-81
2021/06/15 08:32:22;;;;;;;;;7.00;7.00;;;;;19.69;41.78;98820.22;4971106;28;102089;-81
2021/06/15 08:34:49;;;;;;;;;8.00;5.33;;;;;19.75;42.12;98821.13;4967813;27;102420;-81
2021/06/15 08:37:16;;;;;;;;;9.67;7.33;;;;;19.71;41.96;98815.31;4976227;28;104553;-81
2021/06/15 08:39:57;;;;;;;;;8.33;6.67;;;;;19.74;42.01;98805.72;4908717;27;109810;-80
2021/06/15 08:42:25;;;;;;;;;7.33;7.33;;;;;19.72;42.23;98799.69;4976090;28;101921;-81
2021/06/15 08:44:53;;;;;;;;;9.00;8.33;;;;;19.77;42.11;98806.06;4977623;28;102127;-81
2021/06/15 08:47:20;;;;;;;;;7.00;7.00;;;;;19.70;42.11;98796.34;4960566;28;102597;-81
2021/06/15 08:49:48;;;;;;;;;7.00;7.00;;;;;19.79;41.98;98800.31;4965599;28;103141;-81
2021/06/15 08:52:16;;;;;;;;;7.00;7.00;;;;;19.76;42.07;98787.13;4978392;27;102000;-80
2021/06/15 08:54:44;;;;;;;;;9.00;8.00;;;;;19.82;42.02;98794.31;4972074;28;101988;-81
2021/06/15 08:57:11;;;;;;;;;8.00;6.33;;;;;19.84;42.33;98797.63;4962717;28;102032;-81
2021/06/15 08:59:38;;;;;;;;;9.67;8.67;;;;;19.84;42.05;98798.47;4975380;28;104057;-81
2021/06/15 09:02:06;;;;;;;;;9.33;9.00;;;;;19.88;42.26;98793.28;4967474;28;102108;-81
2021/06/15 09:04:34;;;;;;;;;9.33;7.67;;;;;19.87;41.94;98789.72;4978347;27;102190;-81
2021/06/15 09:07:01;;;;;;;;;8.33;7.00;;;;;19.86;42.28;98782.56;4986735;28;102194;-82
2021/06/15 09:09:42;;;;;;;;;9.00;8.00;;;;;19.87;41.90;98780.66;4964786;28;104269;-81
2021/06/15 09:12:10;;;;;;;;;6.00;6.00;;;;;19.81;41.80;98768.78;4978250;28;102382;-81
2021/06/15 09:14:52;;;;;;;;;6.67;6.67;;;;;19.83;41.98;98769.38;4972817;28;102062;-81
2021/06/15 09:17:27;;;;;;;;;7.00;7.00;;;;;19.93;42.24;98782.38;4968800;28;102342;-81
2021/06/15 09:19:58;;;;;;;;;7.67;7.00;;;;;19.92;42.33;98777.97;4974487;28;104077;-80
2021/06/15 09:22:30;;;;;;;;;7.67;7.00;;;;;19.94;42.36;98778.56;4985326;28;102231;-81
2021/06/15 09:24:57;;;;;;;;;5.67;4.67;;;;;19.94;42.20;98787.63;4971201;27;102021;-81
2021/06/15 09:27:32;;;;;;;;;9.00;8.00;;;;;19.97;42.34;98775.28;4972525;27;102252;-81
2021/06/15 09:30:00;;;;;;;;;6.00;6.00;;;;;19.92;42.22;98776.06;4958005;28;103089;-81
2021/06/15 09:32:29;;;;;;;;;8.00;7.00;;;;;19.94;41.98;98778.56;4969049;28;102497;-81
2021/06/15 09:35:01;;;;;;;;;9.00;9.00;;;;;19.99;42.06;98779.41;4966841;28;102437;-80
2021/06/15 09:37:41;;;;;;;;;6.00;6.00;;;;;19.95;42.03;98766.47;4969068;28;102139;-81
2021/06/15 09:40:13;;;;;;;;;7.00;6.00;;;;;20.01;42.77;98784.66;4970287;28;103327;-81
2021/06/15 09:42:51;;;;;;;;;7.00;7.00;;;;;19.99;42.45;98767.63;4974112;28;102617;-81
2021/06/15 09:45:20;;;;;;;;;10.00;8.00;;;;;19.96;42.44;98765.38;4972205;28;102049;-83
2021/06/15 09:47:47;;;;;;;;;8.00;7.67;;;;;19.99;42.46;98773.13;4950668;28;102195;-79
2021/06/15 09:50:16;;;;;;;;;7.00;7.00;;;;;20.04;42.31;98773.16;4988604;28;107683;-81
2021/06/15 09:52:44;;;;;;;;;6.00;6.00;;;;;20.08;42.40;98776.25;4994181;27;102500;-81
2021/06/15 09:55:11;;;;;;;;;7.33;6.67;;;;;20.06;42.28;98773.75;4970822;28;102180;-82
2021/06/15 09:57:44;;;;;;;;;5.00;5.00;;;;;20.08;42.58;98779.81;4970514;27;102160;-81
2021/06/15 10:00:19;;;;;;;;;7.67;7.00;;;;;20.12;42.70;98777.38;4973489;28;104068;-80
2021/06/15 10:02:49;;;;;;;;;6.67;6.67;;;;;20.04;42.81;98759.44;4971224;28;102101;-80
2021/06/15 10:05:21;;;;;;;;;7.67;7.00;;;;;20.12;42.52;98775.47;4971169;28;103106;-81
2021/06/15 10:07:48;;;;;;;;;7.67;7.00;;;;;20.13;42.41;98770.81;4971481;28;102223;-80
2021/06/15 10:10:17;;;;;;;;;7.67;7.00;;;;;20.12;42.50;98761.75;4967248;27;108988;-82
2021/06/15 10:12:45;;;;;;;;;8.00;7.33;;;;;20.17;42.48;98777.44;4957181;28;102664;-81
2021/06/15 10:15:12;;;;;;;;;9.33;7.33;;;;;20.10;42.46;98758.41;4984125;28;101680;-81
2021/06/15 10:17:45;;;;;;;;;6.67;5.67;;;;;20.16;42.17;98762.88;4962724;28;102168;-81
2021/06/15 10:20:14;;;;;;;;;6.00;5.67;;;;;20.19;42.29;98753.28;4978330;28;103349;-81
2021/06/15 10:22:43;;;;;;;;;6.00;6.00;;;;;20.18;42.44;98751.59;4985220;27;101993;-81
2021/06/15 10:25:11;;;;;;;;;8.00;6.67;;;;;20.19;42.69;98751.34;4971590;28;102193;-82
2021/06/15 10:27:41;;;;;;;;;6.67;6.00;;;;;20.19;42.61;98750.53;4980767;28;101951;-80
2021/06/15 10:30:09;;;;;;;;;4.33;4.33;;;;;20.19;42.77;98751.34;4977117;28;103121;-81
2021/06/15 10:32:49;;;;;;;;;7.00;6.67;;;;;20.18;42.58;98738.72;4976914;28;101841;-81
2021/06/15 10:35:43;;;;;;;;;6.00;6.00;;;;;20.17;42.77;98739.00;4969039;28;102180;-81
2021/06/15 10:38:30;;;;;;;;;7.33;7.00;;;;;20.25;42.43;98744.00;4927809;28;103338;-81
2021/06/15 10:41:01;;;;;;;;;9.00;8.00;;;;;20.27;43.15;98745.41;4930450;28;108829;-81
2021/06/15 10:43:43;;;;;;;;;6.67;6.33;;;;;20.22;42.71;98728.88;4977215;28;102552;-81
2021/06/15 10:46:12;;;;;;;;;9.33;8.00;;;;;20.24;42.71;98723.97;4956800;28;102456;-81
2021/06/15 10:48:44;;;;;;;;;7.33;7.33;;;;;20.33;42.50;98736.16;4980302;28;102221;-82
2021/06/15 10:51:29;;;;;;;;;6.67;5.00;;;;;20.31;42.60;98730.09;4971814;27;103132;-80
2021/06/15 10:54:03;;;;;;;;;7.00;6.00;;;;;20.35;43.22;98725.72;4909477;28;102281;-79
2021/06/15 10:56:34;;;;;;;;;7.00;6.67;;;;;20.36;43.05;98721.06;4959007;28;102264;-81
2021/06/15 10:59:06;;;;;;;;;7.00;6.00;;;;;20.28;42.69;98702.28;4978450;28;105037;-81
2021/06/15 11:01:42;;;;;;;;;5.67;5.67;;;;;20.39;43.17;98715.91;4965319;28;103076;-81
2021/06/15 11:04:13;;;;;;;;;6.00;5.33;;;;;20.41;43.12;98721.09;4961935;28;101949;-80
2021/06/15 11:06:48;;;;;;;;;6.67;6.00;;;;;20.35;42.66;98705.69;4977819;27;108258;-82
2021/06/15 11:09:18;;;;;;;;;7.67;7.00;;;;;20.41;42.39;98716.44;4960377;27;103046;-81
2021/06/15 11:11:58;;;;;;;;;6.00;6.00;;;;;20.37;42.47;98704.34;4969498;28;105828;-82
2021/06/15 11:14:29;;;;;;;;;7.00;6.33;;;;;20.33;42.54;98692.22;4911568;27;102203;-82
2021/06/15 11:17:00;;;;;;;;;7.00;6.00;;;;;20.39;42.66;98699.41;4969466;27;105579;-81
2021/06/15 11:19:37;;;;;;;;;6.00;6.00;;;;;20.46;42.07;98702.75;4978830;27;101789;-81
2021/06/15 11:22:07;;;;;;;;;5.00;5.00;;;;;20.40;42.11;98692.81;4958428;28;103180;-80
2021/06/15 11:24:48;;;;;;;;;7.00;7.00;;;;;20.40;42.26;98686.47;4984273;28;102851;-81
2021/06/15 11:27:20;;;;;;;;;6.00;5.33;;;;;20.43;42.75;98694.22;4953402;28;102043;-80
2021/06/15 11:29:50;;;;;;;;;6.00;6.00;;;;;20.52;42.46;98703.63;4956444;28;102668;-81
2021/06/15 11:32:24;;;;;;;;;7.00;6.00;;;;;20.44;42.68;98688.44;4956268;28;109007;-80
2021/06/15 11:34:55;;;;;;;;;7.00;6.33;;;;;20.46;42.28;98686.28;4965687;28;102339;-82
2021/06/15 11:37:37;;;;;;;;;8.00;6.00;;;;;20.54;43.29;98692.38;4967318;27;102519;-82
2021/06/15 11:40:34;;;;;;;;;6.00;5.00;;;;;20.56;43.29;98695.69;4896054;27;102733;-81
2021/06/15 11:43:09;;;;;;;;;5.67;5.33;;;;;20.48;42.85;98686.84;4900166;28;107919;-82
2021/06/15 11:45:45;;;;;;;;;9.00;8.00;;;;;20.54;42.79;98689.63;4960756;28;102111;-82
2021/06/15 11:48:34;;;;;;;;;6.00;5.00;;;;;20.60;42.76;98702.31;4958551;28;102353;-81
2021/06/15 11:51:06;;;;;;;;;7.33;7.00;;;;;20.52;43.13;98680.81;4893066;28;102119;-81
2021/06/15 11:53:40;;;;;;;;;4.00;4.00;;;;;20.59;42.63;98701.47;4957520;28;104006;-81
2021/06/15 11:56:11;;;;;;;;;5.67;5.00;;;;;20.59;43.17;98697.91;4960220;28;102220;-81
2021/06/15 11:58:55;;;;;;;;;7.00;6.00;;;;;20.63;42.94;98701.78;4943635;27;105052;-81